createdAt,value
2023-05-02T00:02:49.584Z,101662.09
2023-05-02T00:05:53.309Z,101664.63
2023-05-02T00:08:56.908Z,101665.47
2023-05-02T00:12:00.460Z,101654.22
2023-05-02T00:15:05.037Z,101656.84
2023-05-02T00:18:10.300Z,101664.69
2023-05-02T00:21:14.190Z,101660.28
2023-05-02T00:24:18.761Z,101658.50
2023-05-02T00:27:22.361Z,101658.50
2023-05-02T00:30:25.858Z,101654.19
2023-05-02T00:33:30.726Z,101654.97
2023-05-02T00:36:34.340Z,101662.75
2023-05-02T00:39:37.837Z,101662.03
2023-05-02T00:42:41.309Z,101656.78
2023-05-02T00:45:46.793Z,101655.88
2023-05-02T00:48:52.055Z,101662.75
2023-05-02T00:51:56.037Z,101662.88
2023-05-02T00:54:59.782Z,101666.44
2023-05-02T00:58:06.882Z,101667.38
2023-05-02T01:01:29.574Z,101666.44
2023-05-02T01:04:45.572Z,101673.41
2023-05-02T01:08:09.127Z,101670.84
2023-05-02T01:11:20.093Z,101666.47
2023-05-02T01:14:26.479Z,101663.94
2023-05-02T01:17:34.723Z,101670.88
2023-05-02T01:20:45.941Z,101671.72
2023-05-02T01:24:04.516Z,101670.13
2023-05-02T01:27:20.123Z,101678.97
2023-05-02T01:30:29.347Z,101679.25
2023-05-02T01:33:35.926Z,101681.88
2023-05-02T01:36:46.830Z,101691.66
2023-05-02T01:39:53.013Z,101705.69
2023-05-02T01:43:00.242Z,101702.47
2023-05-02T01:46:10.333Z,101709.47
2023-05-02T01:49:14.061Z,101709.53
2023-05-02T01:52:22.933Z,101715.78
2023-05-02T01:55:29.636Z,101721.06
2023-05-02T01:58:36.664Z,101727.16
2023-05-02T02:01:44.949Z,101737.69
2023-05-02T02:04:51.014Z,101738.66
2023-05-02T02:07:54.673Z,101743.22
2023-05-02T02:11:05.527Z,101742.59
2023-05-02T02:14:19.721Z,101749.59
2023-05-02T02:17:41.660Z,101747.22
2023-05-02T02:20:48.496Z,101753.34
2023-05-02T02:23:57.252Z,101759.53
2023-05-02T02:27:00.769Z,101762.28
2023-05-02T02:30:04.955Z,101784.13
2023-05-02T02:33:09.904Z,101787.84
2023-05-02T02:36:21.640Z,101782.78
2023-05-02T02:39:43.389Z,101791.63
2023-05-02T02:42:56.299Z,101794.25
2023-05-02T02:46:15.756Z,101809.19
2023-05-02T02:49:36.958Z,101806.63
2023-05-02T02:52:53.647Z,101811.84
2023-05-02T02:56:05.102Z,101822.34
2023-05-02T02:59:18.366Z,101826.81
2023-05-02T03:02:30.459Z,101830.31
2023-05-02T03:05:36.056Z,101832.94
2023-05-02T03:08:42.618Z,101846.06
2023-05-02T03:11:46.644Z,101860.06
2023-05-02T03:14:50.285Z,101864.44
2023-05-02T03:17:53.877Z,101865.34
2023-05-02T03:20:58.898Z,101878.41
2023-05-02T03:24:03.947Z,101882.78
2023-05-02T03:27:07.719Z,101884.56
2023-05-02T03:30:12.361Z,101890.66
2023-05-02T03:33:16.711Z,101885.44
2023-05-02T03:36:21.614Z,101893.34
2023-05-02T03:39:25.094Z,101890.66
2023-05-02T03:42:28.621Z,101902.91
2023-05-02T03:45:32.181Z,101921.22
2023-05-02T03:48:36.719Z,101915.16
2023-05-02T03:51:41.617Z,101926.41
2023-05-02T03:54:45.185Z,101931.66
2023-05-02T03:57:48.657Z,101920.38
2023-05-02T04:00:52.923Z,101938.69
2023-05-02T04:03:56.382Z,101943.00
2023-05-02T04:07:01.653Z,101936.09
2023-05-02T04:10:05.995Z,101943.03
2023-05-02T04:13:09.529Z,101951.75
2023-05-02T04:16:13.175Z,101961.31
2023-05-02T04:19:16.808Z,101959.56
2023-05-02T04:22:21.846Z,101972.63
2023-05-02T04:25:25.341Z,101972.66
2023-05-02T04:28:29.203Z,101981.34
2023-05-02T04:31:33.555Z,101983.97
2023-05-02T04:34:37.105Z,101985.72
2023-05-02T04:37:41.978Z,101989.16
2023-05-02T04:40:46.027Z,101985.69
2023-05-02T04:43:49.569Z,101999.63
2023-05-02T04:46:53.213Z,101998.75
2023-05-02T04:49:57.078Z,102001.38
2023-05-02T04:53:01.975Z,102011.78
2023-05-02T04:56:06.317Z,102024.88
2023-05-02T04:59:09.804Z,102030.97
2023-05-02T05:02:13.617Z,102041.41
2023-05-02T05:05:17.129Z,102045.75
2023-05-02T05:08:22.234Z,102042.28
2023-05-02T05:11:26.854Z,102050.97
2023-05-02T05:14:31.423Z,102067.50
2023-05-02T05:17:34.954Z,102061.44
2023-05-02T05:20:38.728Z,102080.56
2023-05-02T05:23:46.181Z,102084.03
2023-05-02T05:26:49.798Z,102082.28
2023-05-02T05:29:53.270Z,102089.25
2023-05-02T05:32:56.913Z,102085.75
2023-05-02T05:36:06.899Z,102092.72
2023-05-02T05:39:12.038Z,102103.16
2023-05-02T05:42:15.823Z,102115.34
2023-05-02T05:45:19.823Z,102114.44
2023-05-02T05:48:24.281Z,102131.84
2023-05-02T05:51:28.576Z,102137.06
2023-05-02T05:54:33.605Z,102142.25
2023-05-02T05:57:37.089Z,102154.44
2023-05-02T06:00:42.787Z,102150.13
2023-05-02T06:03:46.523Z,102156.22
2023-05-02T06:06:51.567Z,102156.22
2023-05-02T06:09:56.533Z,102168.34
2023-05-02T06:13:00.030Z,102164.88
2023-05-02T06:16:03.683Z,102171.00
2023-05-02T06:19:07.227Z,102172.78
2023-05-02T06:22:14.114Z,102182.28
2023-05-02T06:25:19.148Z,102182.31
2023-05-02T06:28:22.791Z,102191.91
2023-05-02T06:31:26.416Z,102192.75
2023-05-02T06:34:30.174Z,102203.19
2023-05-02T06:37:40.554Z,102207.56
2023-05-02T06:40:45.960Z,102210.16
2023-05-02T06:43:49.428Z,102214.50
2023-05-02T06:46:53.153Z,102218.00
2023-05-02T06:49:57.763Z,102225.81
2023-05-02T06:53:01.382Z,102223.22
2023-05-02T06:56:07.462Z,102225.00
2023-05-02T06:59:11.819Z,102230.22
2023-05-02T07:02:15.295Z,102231.91
2023-05-02T07:05:18.903Z,102238.03
2023-05-02T07:08:24.144Z,102243.25
2023-05-02T07:11:29.193Z,102251.09
2023-05-02T07:14:32.626Z,102258.91
2023-05-02T07:17:36.221Z,102258.94
2023-05-02T07:20:42.288Z,102269.38
2023-05-02T07:23:45.866Z,102265.00
2023-05-02T07:26:50.846Z,102279.81
2023-05-02T07:29:54.415Z,102277.25
2023-05-02T07:32:57.919Z,102290.28
2023-05-02T07:36:03.681Z,102287.69
2023-05-02T07:39:07.243Z,102296.38
2023-05-02T07:42:12.083Z,102299.88
2023-05-02T07:45:15.809Z,102305.09
2023-05-02T07:48:20.339Z,102301.63
2023-05-02T07:51:23.989Z,102308.63
2023-05-02T07:54:27.740Z,102306.88
2023-05-02T07:57:32.813Z,102305.09
2023-05-02T08:00:37.874Z,102306.00
2023-05-02T08:03:41.623Z,102307.72
2023-05-02T08:06:46.288Z,102312.97
2023-05-02T08:09:50.196Z,102314.69
2023-05-02T08:12:55.501Z,102318.19
2023-05-02T08:16:00.453Z,102310.34
2023-05-02T08:19:04.029Z,102326.03
2023-05-02T08:22:08.467Z,102331.28
2023-05-02T08:25:12.112Z,102331.25
2023-05-02T08:28:17.059Z,102336.47
2023-05-02T08:31:21.188Z,102347.81
2023-05-02T08:34:24.768Z,102348.69
2023-05-02T08:37:28.389Z,102348.66
2023-05-02T08:40:42.428Z,102353.03
2023-05-02T08:43:49.227Z,102348.69
2023-05-02T08:46:54.464Z,102358.16
2023-05-02T08:49:59.666Z,102351.06
2023-05-02T08:53:05.843Z,102352.03
2023-05-02T08:56:11.229Z,102366.06
2023-05-02T08:59:16.162Z,102369.56
2023-05-02T09:02:47.177Z,102368.72
2023-05-02T09:05:55.858Z,102373.06
2023-05-02T09:09:02.189Z,102359.88
2023-05-02T09:12:05.883Z,102370.38
2023-05-02T09:15:20.619Z,102363.38
2023-05-02T09:18:25.200Z,102362.59
2023-05-02T09:21:38.169Z,102359.03
2023-05-02T09:24:42.150Z,102371.84
2023-05-02T09:27:54.434Z,102367.66
2023-05-02T09:31:09.401Z,102378.81
2023-05-02T09:34:15.207Z,102372.53
2023-05-02T09:37:37.169Z,102379.78
2023-05-02T09:40:54.332Z,102376.41
2023-05-02T09:43:58.552Z,102389.25
2023-05-02T09:47:03.650Z,102389.50
2023-05-02T09:50:09.295Z,102395.47
2023-05-02T09:53:12.855Z,102381.09
2023-05-02T09:56:16.601Z,102379.31
2023-05-02T09:59:20.052Z,102386.72
2023-05-02T10:02:27.010Z,102402.81
2023-05-02T10:05:33.363Z,102415.50
2023-05-02T10:08:38.074Z,102407.69
2023-05-02T10:11:45.301Z,102425.25
2023-05-02T10:14:56.436Z,102414.75
2023-05-02T10:18:10.773Z,102428.72
2023-05-02T10:21:18.887Z,102426.78
2023-05-02T10:24:22.863Z,102426.97
2023-05-02T10:27:27.137Z,102428.50
2023-05-02T10:30:32.775Z,102420.50
2023-05-02T10:33:39.943Z,102435.44
2023-05-02T10:36:43.394Z,102432.88
2023-05-02T10:39:47.377Z,102444.44
2023-05-02T10:42:53.085Z,102435.72
2023-05-02T10:45:56.853Z,102443.50
2023-05-02T10:49:07.376Z,102443.28
2023-05-02T10:52:30.691Z,102452.06
2023-05-02T10:55:34.736Z,102455.28
2023-05-02T10:58:38.506Z,102468.03
2023-05-02T11:01:42.927Z,102460.06
2023-05-02T11:05:05.500Z,102475.84
2023-05-02T11:08:34.401Z,102475.91
2023-05-02T11:11:44.401Z,102480.25
2023-05-02T11:14:52.385Z,102468.59
2023-05-02T11:18:01.166Z,102472.28
2023-05-02T11:21:32.115Z,102472.19
2023-05-02T11:24:42.696Z,102488.06
2023-05-02T11:27:49.318Z,102491.53
2023-05-02T11:30:52.865Z,102497.69
2023-05-02T11:34:00.389Z,102509.13
2023-05-02T11:37:14.610Z,102502.06
2023-05-02T11:40:18.937Z,102498.44
2023-05-02T11:43:25.242Z,102493.22
2023-05-02T11:46:28.992Z,102494.06
2023-05-02T11:49:33.127Z,102490.97
2023-05-02T11:52:41.527Z,102494.47
2023-05-02T11:55:50.500Z,102488.72
2023-05-02T11:59:01.021Z,102499.50
2023-05-02T12:02:04.577Z,102492.47
2023-05-02T12:05:10.408Z,102494.63
2023-05-02T12:08:23.975Z,102521.25
2023-05-02T12:11:28.400Z,102528.31
2023-05-02T12:14:33.764Z,102528.31
2023-05-02T12:17:41.917Z,102531.75
2023-05-02T12:20:46.833Z,102529.91
2023-05-02T12:23:52.072Z,102531.72
2023-05-02T12:27:12.395Z,102524.53
2023-05-02T12:30:28.007Z,102530.00
2023-05-02T12:33:42.857Z,102538.69
2023-05-02T12:36:46.458Z,102530.75
2023-05-02T12:39:51.790Z,102530.63
2023-05-02T12:43:05.591Z,102528.81
2023-05-02T12:46:13.057Z,102542.97
2023-05-02T12:49:18.068Z,102550.00
2023-05-02T12:52:23.316Z,102556.94
2023-05-02T12:55:29.347Z,102549.91
2023-05-02T12:58:42.729Z,102565.78
2023-05-02T13:01:46.270Z,102557.72
2023-05-02T13:04:50.025Z,102568.25
2023-05-02T13:07:56.656Z,102571.81
2023-05-02T13:11:01.760Z,102581.50
2023-05-02T13:14:06.031Z,102570.03
2023-05-02T13:17:09.957Z,102576.94
2023-05-02T13:20:14.484Z,102568.19
2023-05-02T13:23:18.061Z,102570.81
2023-05-02T13:26:23.094Z,102578.66
2023-05-02T13:29:26.614Z,102569.81
2023-05-02T13:32:30.716Z,102573.53
2023-05-02T13:35:35.347Z,102574.31
2023-05-02T13:38:39.264Z,102568.06
2023-05-02T13:41:44.243Z,102584.00
2023-05-02T13:44:47.763Z,102584.84
2023-05-02T13:47:51.291Z,102581.28
2023-05-02T13:50:54.889Z,102583.81
2023-05-02T13:53:58.388Z,102590.91
2023-05-02T13:57:04.279Z,102579.53
2023-05-02T14:00:11.001Z,102584.78
2023-05-02T14:03:14.847Z,102599.81
2023-05-02T14:06:18.462Z,102591.94
2023-05-02T14:09:22.153Z,102584.91
2023-05-02T14:12:27.125Z,102593.63
2023-05-02T14:15:44.698Z,102599.75
2023-05-02T14:18:50.053Z,102597.03
2023-05-02T14:21:53.565Z,102597.94
2023-05-02T14:24:57.177Z,102605.84
2023-05-02T14:28:02.912Z,102600.59
2023-05-02T14:31:06.682Z,102606.63
2023-05-02T14:34:10.273Z,102607.47
2023-05-02T14:37:13.922Z,102606.75
2023-05-02T14:40:17.628Z,102608.34
2023-05-02T14:43:22.805Z,102609.06
2023-05-02T14:46:26.392Z,102609.09
2023-05-02T14:49:30.005Z,102630.19
2023-05-02T14:52:33.678Z,102630.38
2023-05-02T14:55:41.312Z,102626.88
2023-05-02T14:58:46.362Z,102631.28
2023-05-02T15:01:53.049Z,102640.00
2023-05-02T15:04:56.580Z,102639.13
2023-05-02T15:08:00.111Z,102636.50
2023-05-02T15:11:03.616Z,102638.19
2023-05-02T15:14:08.556Z,102626.81
2023-05-02T15:17:12.077Z,102636.41
2023-05-02T15:20:15.545Z,102652.22
2023-05-02T15:23:19.281Z,102636.47
2023-05-02T15:26:24.352Z,102641.78
2023-05-02T15:29:29.386Z,102639.13
2023-05-02T15:32:32.886Z,102641.78
2023-05-02T15:35:36.936Z,102650.47
2023-05-02T15:38:42.724Z,102654.84
2023-05-02T15:41:47.812Z,102642.66
2023-05-02T15:44:54.083Z,102666.22
2023-05-02T15:47:58.153Z,102656.63
2023-05-02T15:51:02.432Z,102667.09
2023-05-02T15:54:06.910Z,102666.19
2023-05-02T15:57:12.720Z,102660.09
2023-05-02T16:00:18.446Z,102660.97
2023-05-02T16:03:22.044Z,102665.31
2023-05-02T16:06:25.905Z,102665.31
2023-05-02T16:09:31.189Z,102664.44
2023-05-02T16:12:34.649Z,102667.06
2023-05-02T16:15:48.232Z,102668.84
2023-05-02T16:18:51.784Z,102680.19
2023-05-02T16:21:55.313Z,102680.19
2023-05-02T16:24:59.293Z,102678.44
2023-05-02T16:28:03.452Z,102681.94
2023-05-02T16:31:11.303Z,102685.41
2023-05-02T16:34:15.057Z,102683.63
2023-05-02T16:37:18.598Z,102691.53
2023-05-02T16:40:22.438Z,102689.78
2023-05-02T16:43:26.144Z,102688.91
2023-05-02T16:46:32.813Z,102685.41
2023-05-02T16:49:36.489Z,102688.91
2023-05-02T16:52:40.057Z,102684.56
2023-05-02T16:55:43.564Z,102688.00
2023-05-02T16:58:47.084Z,102684.47
2023-05-02T17:01:52.270Z,102689.78
2023-05-02T17:04:55.894Z,102693.25
2023-05-02T17:07:59.440Z,102696.69
2023-05-02T17:11:02.941Z,102703.59
2023-05-02T17:14:06.427Z,102703.59
2023-05-02T17:17:11.795Z,102703.59
2023-05-02T17:20:17.404Z,102701.00
2023-05-02T17:23:21.015Z,102714.03
2023-05-02T17:26:25.023Z,102714.06
2023-05-02T17:29:28.795Z,102716.56
2023-05-02T17:32:34.921Z,102719.19
2023-05-02T17:35:38.647Z,102728.78
2023-05-02T17:38:42.136Z,102727.94
2023-05-02T17:41:45.943Z,102728.00
2023-05-02T17:44:49.641Z,102722.78
2023-05-02T17:47:54.599Z,102723.63
2023-05-02T17:50:58.221Z,102725.41
2023-05-02T17:54:02.588Z,102730.53
2023-05-02T17:57:06.165Z,102732.19
2023-05-02T18:00:11.491Z,102734.78
2023-05-02T18:03:16.716Z,102730.41
2023-05-02T18:06:20.515Z,102736.47
2023-05-02T18:09:25.555Z,102733.00
2023-05-02T18:12:29.252Z,102738.16
2023-05-02T18:15:45.842Z,102747.78
2023-05-02T18:18:50.902Z,102746.94
2023-05-02T18:21:54.560Z,102752.16
2023-05-02T18:24:58.214Z,102753.06
2023-05-02T18:28:01.999Z,102752.22
2023-05-02T18:31:05.507Z,102746.06
2023-05-02T18:34:10.444Z,102753.00
2023-05-02T18:37:14.262Z,102751.22
2023-05-02T18:40:17.810Z,102756.28
2023-05-02T18:43:22.032Z,102759.63
2023-05-02T18:46:25.691Z,102765.56
2023-05-02T18:49:31.859Z,102766.38
2023-05-02T18:52:36.424Z,102770.59
2023-05-02T18:55:40.121Z,102764.50
2023-05-02T18:58:43.890Z,102773.94
2023-05-02T19:01:49.256Z,102779.88
2023-05-02T19:04:54.299Z,102793.66
2023-05-02T19:07:57.982Z,102799.63
2023-05-02T19:11:01.478Z,102805.47
2023-05-02T19:14:05.759Z,102802.72
2023-05-02T19:17:09.257Z,102810.59
2023-05-02T19:20:14.368Z,102812.06
2023-05-02T19:23:20.538Z,102810.22
2023-05-02T19:26:24.403Z,102811.09
2023-05-02T19:29:27.947Z,102818.97
2023-05-02T19:32:32.018Z,102827.53
2023-05-02T19:35:37.508Z,102834.31
2023-05-02T19:38:41.676Z,102835.19
2023-05-02T19:41:45.370Z,102836.84
2023-05-02T19:44:49.173Z,102836.00
2023-05-02T19:47:53.064Z,102835.22
2023-05-02T19:50:58.065Z,102839.63
2023-05-02T19:54:01.692Z,102838.78
2023-05-02T19:57:05.288Z,102838.78
2023-05-02T20:00:10.380Z,102843.28
2023-05-02T20:03:14.018Z,102830.28
2023-05-02T20:06:19.259Z,102834.63
2023-05-02T20:09:22.881Z,102841.44
2023-05-02T20:12:26.440Z,102845.78
2023-05-02T20:15:31.134Z,102846.69
2023-05-02T20:18:34.660Z,102851.03
2023-05-02T20:21:40.337Z,102847.78
2023-05-02T20:24:43.864Z,102849.28
2023-05-02T20:27:47.452Z,102854.38
2023-05-02T20:30:50.988Z,102853.66
2023-05-02T20:33:54.545Z,102853.69
2023-05-02T20:36:59.441Z,102856.13
2023-05-02T20:40:05.194Z,102860.50
2023-05-02T20:43:09.078Z,102858.03
2023-05-02T20:46:16.221Z,102857.94
2023-05-02T20:49:20.108Z,102852.81
2023-05-02T20:52:25.111Z,102847.69
2023-05-02T20:55:29.019Z,102858.13
2023-05-02T20:58:32.809Z,102862.56
2023-05-02T21:01:36.766Z,102862.28
2023-05-02T21:04:42.191Z,102865.69
2023-05-02T21:07:47.188Z,102860.38
2023-05-02T21:10:51.462Z,102860.03
2023-05-02T21:13:55.096Z,102864.22
2023-05-02T21:16:58.634Z,102865.84
2023-05-02T21:20:02.429Z,102871.84
2023-05-02T21:23:07.716Z,102875.13
2023-05-02T21:26:11.253Z,102876.94
2023-05-02T21:29:15.971Z,102868.22
2023-05-02T21:32:19.605Z,102875.28
2023-05-02T21:35:23.070Z,102867.22
2023-05-02T21:38:28.047Z,102870.38
2023-05-02T21:41:31.537Z,102876.63
2023-05-02T21:44:35.146Z,102879.25
2023-05-02T21:47:38.740Z,102873.97
2023-05-02T21:50:42.753Z,102877.84
2023-05-02T21:53:47.774Z,102876.34
2023-05-02T21:56:51.415Z,102875.97
2023-05-02T21:59:54.904Z,102880.59
2023-05-02T22:02:58.514Z,102878.94
2023-05-02T22:06:06.001Z,102873.88
2023-05-02T22:09:11.567Z,102874.84
2023-05-02T22:12:15.073Z,102873.16
2023-05-02T22:15:18.536Z,102875.78
2023-05-02T22:18:22.146Z,102884.34
2023-05-02T22:21:25.893Z,102881.94
2023-05-02T22:24:30.861Z,102879.44
2023-05-02T22:27:34.402Z,102874.97
2023-05-02T22:30:38.151Z,102889.78
2023-05-02T22:33:41.639Z,102882.88
2023-05-02T22:36:45.258Z,102889.63
2023-05-02T22:39:50.087Z,102899.72
2023-05-02T22:42:53.681Z,102893.00
2023-05-02T22:45:57.196Z,102889.31
2023-05-02T22:49:00.796Z,102889.16
2023-05-02T22:52:04.297Z,102902.06
2023-05-02T22:55:11.802Z,102897.03
2023-05-02T22:58:15.341Z,102897.63
2023-05-02T23:01:18.957Z,102896.84
2023-05-02T23:04:22.474Z,102896.78
2023-05-02T23:07:26.240Z,102894.25
2023-05-02T23:10:31.191Z,102895.88
2023-05-02T23:13:34.735Z,102903.13
2023-05-02T23:16:38.238Z,102899.88
2023-05-02T23:19:42.113Z,102894.72
2023-05-02T23:22:47.159Z,102899.00
2023-05-02T23:25:52.071Z,102891.16
2023-05-02T23:28:55.559Z,102899.16
2023-05-02T23:31:59.863Z,102906.19
2023-05-02T23:35:04.064Z,102906.25
2023-05-02T23:38:08.889Z,102901.91
2023-05-02T23:41:13.780Z,102897.63
2023-05-02T23:44:18.132Z,102906.91
2023-05-02T23:47:22.911Z,102911.78
2023-05-02T23:50:26.895Z,102918.75
2023-05-02T23:53:30.366Z,102915.84
2023-05-02T23:56:35.485Z,102907.97
2023-05-02T23:59:38.953Z,102910.59
